Aérodrome :
LOGIN :

S'inscrire | Disclaimer

   EN    FR    IT 

 










Légende :    VFR   VFR Marginal   IFR   IFR Intensif   IFR Très Intensif
Visi : 
Plafond : 
>= 8 km
>= 3000ft
5 à 8 km
1000 à 3000 ft
1500m à 5 km
500 à 1000 ft
800 à 1500m
200 à 500 ft
< 800m
< 200 ft
Symboles :   Orages  Brouillard  Fortes neiges  Fortes précipitations  Vent > 20 kt
SIGMETs :   Divers  Orages  Givrage  Turbulence  Onde Orograph.  Cendres Volcan.







- Altitude de l'aérodrome : 408 ft
- Code IATA : FKB


EDSB - Karlsruhe Baden Baden

DERNIER METAR :
  • 230950Z 01006KT 340V050 CAVOK 10/07 Q1014

METARs EXPIRÉS :
  • 230920Z 03004KT 350V080 CAVOK 10/07 Q1014
  • 230850Z 01004KT 330V040 CAVOK 09/06 Q1014
  • 230820Z 02005KT 360V070 9999 FEW030 08/06 Q1014
  • 230750Z 03004KT 350V060 9000 NSC 07/06 Q1014
  • 230738Z 02004KT 8000 SKC 07/06 Q1014
  • 230720Z VRB03KT 4000 BR NSC 06/06 Q1014

TAF AMD TAF EDSB
Valide du 23 à 07h jusqu'au 24 à 06h UTC


230700Z 2307/2406 04005KT 8000 NSC
TEMPO 2307/2308 4000 BR
BECMG 2310/2312 03011KT
Pas de NOTAMs connus pour ce terrain.



MET'MAP, la Météo Aéronautique d'un coup d'oeil ! - Copyright ORBIFLY Décembre 2007 - Disclaimer

ORBIFLY MET'MAP TEAM :

Programmation & Développement : Alexandra Zaïnal
Conception & Développement : Baudouin d'Aumeries
Co-Programmation & Développement : Marc-Olivier Méhu
Soutien technique & logistique : Manuel Goepfert

Contact : metmap@orbifly.com




SOURCES & CREDITS :

   NOAA